Time,TemperatureF,DewpointF,PressureIn,WindDirection,WindDirectionDegrees,WindSpeedMPH,WindSpeedGustMPH,Humidity,HourlyPrecipIn,Conditions,Clouds,dailyrainin,SoftwareType,DateUTC
2013-02-11 00:00:00,44.5,40.3,30.18,NNW,346,0.0,0.0,85,0.00,,,0.02,LWC V2.00 B2112,2013-02-11 05:00:00,
2013-02-11 00:05:00,44.3,40.4,30.17,NNW,346,0.0,0.0,86,0.00,,,0.03,LWC V2.00 B2112,2013-02-11 05:05:00,
2013-02-11 00:10:00,44.2,40.3,30.17,NNW,346,0.0,0.0,86,0.00,,,0.03,LWC V2.00 B2112,2013-02-11 05:10:00,
2013-02-11 00:15:00,44.2,40.3,30.17,NNW,346,0.0,0.0,86,0.00,,,0.03,LWC V2.00 B2112,2013-02-11 05:15:00,
2013-02-11 00:20:00,44.1,40.5,30.17,NNW,346,0.0,0.0,87,0.00,,,0.03,LWC V2.00 B2112,2013-02-11 05:20:00,
2013-02-11 00:25:00,44.1,40.5,30.17,NNW,346,0.0,0.0,87,0.00,,,0.03,LWC V2.00 B2112,2013-02-11 05:25:00,
2013-02-11 00:30:00,43.9,40.3,30.17,NNW,346,0.0,0.0,87,0.00,,,0.03,LWC V2.00 B2112,2013-02-11 05:30:00,
2013-02-11 00:35:00,43.9,40.3,30.17,NNW,346,0.0,0.0,87,0.00,,,0.03,LWC V2.00 B2112,2013-02-11 05:35:00,
2013-02-11 00:40:00,43.9,40.3,30.17,NNW,346,0.0,0.0,87,0.00,,,0.03,LWC V2.00 B2112,2013-02-11 05:40:00,
2013-02-11 00:45:00,43.8,40.2,30.17,NNW,346,0.0,0.0,87,0.00,,,0.03,LWC V2.00 B2112,2013-02-11 05:45:00,
2013-02-11 00:50:00,43.8,40.2,30.15,NNW,346,0.0,1.0,87,0.00,,,0.03,LWC V2.00 B2112,2013-02-11 05:50:00,
2013-02-11 00:55:00,43.6,40.0,30.15,NNW,346,0.0,0.0,87,0.00,,,0.03,LWC V2.00 B2112,2013-02-11 05:55:00,
2013-02-11 01:00:00,43.6,40.0,30.15,NNW,346,0.0,0.0,87,0.00,,,0.03,LWC V2.00 B2112,2013-02-11 06:00:00,
2013-02-11 01:05:00,43.6,40.0,30.15,NNW,346,0.0,0.0,87,0.00,,,0.03,LWC V2.00 B2112,2013-02-11 06:05:00,
2013-02-11 01:10:00,43.6,40.0,30.15,NNW,346,0.0,0.0,87,0.00,,,0.03,LWC V2.00 B2112,2013-02-11 06:10:00,
2013-02-11 01:15:00,43.6,40.0,30.15,NNW,346,0.0,0.0,87,0.00,,,0.03,LWC V2.00 B2112,2013-02-11 06:15:00,
2013-02-11 01:20:00,43.6,40.0,30.14,NNW,346,0.0,0.0,87,0.00,,,0.03,LWC V2.00 B2112,2013-02-11 06:20:00,
2013-02-11 01:25:00,43.6,40.0,30.14,NNW,346,0.0,0.0,87,0.00,,,0.03,LWC V2.00 B2112,2013-02-11 06:25:00,
2013-02-11 01:30:00,43.6,40.0,30.14,NNW,346,0.0,0.0,87,0.00,,,0.03,LWC V2.00 B2112,2013-02-11 06:30:00,
2013-02-11 01:35:00,43.6,40.0,30.12,NNW,346,0.0,0.0,87,0.00,,,0.03,LWC V2.00 B2112,2013-02-11 06:35:00,
2013-02-11 01:40:00,43.6,40.3,30.12,NNW,346,0.0,0.0,88,0.00,,,0.03,LWC V2.00 B2112,2013-02-11 06:40:00,
2013-02-11 01:45:00,43.8,40.5,30.12,NNW,346,0.0,0.0,88,0.00,,,0.03,LWC V2.00 B2112,2013-02-11 06:45:00,
2013-02-11 01:50:00,43.9,40.6,30.12,NNW,346,0.0,0.0,88,0.00,,,0.03,LWC V2.00 B2112,2013-02-11 06:50:00,
2013-02-11 01:55:00,43.9,40.6,30.12,NNW,346,0.0,0.0,88,0.00,,,0.03,LWC V2.00 B2112,2013-02-11 06:55:00,
2013-02-11 02:00:00,44.1,40.8,30.12,NNW,346,0.0,0.0,88,0.00,,,0.03,LWC V2.00 B2112,2013-02-11 07:00:00,
2013-02-11 02:05:00,44.2,40.9,30.12,NNW,346,0.0,0.0,88,0.00,,,0.03,LWC V2.00 B2112,2013-02-11 07:05:00,
2013-02-11 02:10:00,44.2,40.9,30.12,NNW,346,0.0,0.0,88,0.00,,,0.03,LWC V2.00 B2112,2013-02-11 07:10:00,
2013-02-11 02:15:00,44.3,41.0,30.12,NNW,346,0.0,0.0,88,0.00,,,0.03,LWC V2.00 B2112,2013-02-11 07:15:00,
2013-02-11 02:20:00,44.5,41.2,30.12,NNW,346,0.0,0.0,88,0.00,,,0.03,LWC V2.00 B2112,2013-02-11 07:20:00,
2013-02-11 02:25:00,44.6,41.3,30.12,NNW,346,0.0,0.0,88,0.00,,,0.03,LWC V2.00 B2112,2013-02-11 07:25:00,
2013-02-11 02:30:00,44.8,41.5,30.12,NNW,346,0.0,0.0,88,0.00,,,0.03,LWC V2.00 B2112,2013-02-11 07:30:00,
2013-02-11 02:35:00,44.9,41.9,30.11,NNW,346,0.0,0.0,89,0.00,,,0.03,LWC V2.00 B2112,2013-02-11 07:35:00,
2013-02-11 02:40:00,45.1,42.1,30.11,NNW,346,0.0,0.0,89,0.00,,,0.03,LWC V2.00 B2112,2013-02-11 07:40:00,
2013-02-11 02:45:00,45.2,42.2,30.11,NNW,346,0.0,0.0,89,0.00,,,0.03,LWC V2.00 B2112,2013-02-11 07:45:00,
2013-02-11 02:50:00,45.2,42.2,30.10,NNW,346,0.0,0.0,89,0.00,,,0.03,LWC V2.00 B2112,2013-02-11 07:50:00,
2013-02-11 02:52:00,45.4,42.3,30.10,NNW,346,0.0,1.0,89,0.00,,,0.03,LWC V2.00 B2112,2013-02-11 07:52:00,
2013-02-11 02:57:00,45.5,42.4,30.10,NNW,346,0.0,0.0,89,0.00,,,0.03,LWC V2.00 B2112,2013-02-11 07:57:00,
2013-02-11 03:02:00,45.5,42.4,30.10,NNW,346,0.0,0.0,89,0.00,,,0.03,LWC V2.00 B2112,2013-02-11 08:02:00,
2013-02-11 03:07:00,45.7,42.6,30.10,NNW,346,0.0,0.0,89,0.00,,,0.03,LWC V2.00 B2112,2013-02-11 08:07:00,
2013-02-11 03:12:00,45.7,42.6,30.10,NNW,346,0.0,0.0,89,0.00,,,0.03,LWC V2.00 B2112,2013-02-11 08:12:00,
2013-02-11 03:17:00,45.8,42.7,30.10,NNW,346,0.0,0.0,89,0.00,,,0.03,LWC V2.00 B2112,2013-02-11 08:17:00,
2013-02-11 03:22:00,45.8,42.7,30.10,NNW,346,0.0,0.0,89,0.00,,,0.03,LWC V2.00 B2112,2013-02-11 08:22:00,
2013-02-11 03:27:00,45.8,43.0,30.10,NNW,346,0.0,0.0,90,0.00,,,0.03,LWC V2.00 B2112,2013-02-11 08:27:00,
2013-02-11 03:32:00,45.8,43.0,30.10,NNW,346,0.0,0.0,90,0.00,,,0.03,LWC V2.00 B2112,2013-02-11 08:32:00,
2013-02-11 03:37:00,45.8,43.0,30.09,NNW,346,0.0,0.0,90,0.00,,,0.03,LWC V2.00 B2112,2013-02-11 08:37:00,
2013-02-11 03:42:00,45.7,42.9,30.09,NNW,346,0.0,0.0,90,0.00,,,0.03,LWC V2.00 B2112,2013-02-11 08:42:00,
2013-02-11 03:47:00,45.7,42.9,30.09,NNW,346,0.0,0.0,90,0.00,,,0.03,LWC V2.00 B2112,2013-02-11 08:47:00,
2013-02-11 03:52:00,45.7,42.9,30.07,NNW,346,0.0,0.0,90,0.00,,,0.03,LWC V2.00 B2112,2013-02-11 08:52:00,
2013-02-11 03:57:00,45.7,42.9,30.07,NNW,346,0.0,0.0,90,0.00,,,0.03,LWC V2.00 B2112,2013-02-11 08:57:00,
2013-02-11 04:02:00,45.8,43.3,30.07,NNW,346,0.0,0.0,91,0.00,,,0.03,LWC V2.00 B2112,2013-02-11 09:02:00,
2013-02-11 04:07:00,45.8,43.3,30.07,NNW,346,0.0,0.0,91,0.00,,,0.03,LWC V2.00 B2112,2013-02-11 09:07:00,
2013-02-11 04:12:00,45.8,43.3,30.07,NNW,346,0.0,0.0,91,0.00,,,0.03,LWC V2.00 B2112,2013-02-11 09:12:00,
2013-02-11 04:17:00,45.8,43.3,30.07,NNW,346,0.0,0.0,91,0.00,,,0.03,LWC V2.00 B2112,2013-02-11 09:17:00,
2013-02-11 04:22:00,45.8,43.3,30.07,NNW,346,0.0,0.0,91,0.00,,,0.03,LWC V2.00 B2112,2013-02-11 09:22:00,
2013-02-11 04:27:00,45.8,43.3,30.07,NNW,346,0.0,0.0,91,0.00,,,0.03,LWC V2.00 B2112,2013-02-11 09:27:00,
2013-02-11 04:32:00,45.8,43.3,30.07,NNW,346,0.0,0.0,91,0.00,,,0.03,LWC V2.00 B2112,2013-02-11 09:32:00,
2013-02-11 04:37:00,45.8,43.3,30.07,NNW,346,0.0,0.0,91,0.00,,,0.03,LWC V2.00 B2112,2013-02-11 09:37:00,
2013-02-11 04:42:00,45.8,43.6,30.07,NNW,346,0.0,0.0,92,0.00,,,0.03,LWC V2.00 B2112,2013-02-11 09:42:00,
2013-02-11 04:47:00,45.8,43.6,30.07,NNW,346,0.0,0.0,92,0.00,,,0.03,LWC V2.00 B2112,2013-02-11 09:47:00,
2013-02-11 04:52:00,45.7,43.5,30.06,NNW,346,0.0,0.0,92,0.00,,,0.03,LWC V2.00 B2112,2013-02-11 09:52:00,
2013-02-11 04:57:00,45.7,43.5,30.06,NNW,346,0.0,0.0,92,0.00,,,0.03,LWC V2.00 B2112,2013-02-11 09:57:00,
2013-02-11 05:02:00,45.7,43.5,30.06,NNW,346,0.0,0.0,92,0.00,,,0.03,LWC V2.00 B2112,2013-02-11 10:02:00,
2013-02-11 05:07:00,45.8,43.6,30.06,NNW,346,0.0,0.0,92,0.00,,,0.03,LWC V2.00 B2112,2013-02-11 10:07:00,
2013-02-11 05:12:00,45.8,43.6,30.06,NNW,346,0.0,0.0,92,0.00,,,0.03,LWC V2.00 B2112,2013-02-11 10:12:00,
2013-02-11 05:17:00,45.8,43.9,30.06,NNW,346,0.0,0.0,93,0.00,,,0.03,LWC V2.00 B2112,2013-02-11 10:17:00,
2013-02-11 05:22:00,45.8,43.9,30.07,NNW,346,0.0,0.0,93,0.00,,,0.03,LWC V2.00 B2112,2013-02-11 10:22:00,
2013-02-11 05:27:00,45.8,43.9,30.07,NNW,346,0.0,0.0,93,0.00,,,0.03,LWC V2.00 B2112,2013-02-11 10:27:00,
2013-02-11 05:32:00,45.8,43.9,30.07,NNW,346,0.0,0.0,93,0.00,,,0.03,LWC V2.00 B2112,2013-02-11 10:32:00,
2013-02-11 05:37:00,45.8,43.9,30.06,NNW,346,0.0,0.0,93,0.00,,,0.03,LWC V2.00 B2112,2013-02-11 10:37:00,
2013-02-11 05:42:00,45.8,44.2,30.06,NNW,346,0.0,0.0,94,0.00,,,0.03,LWC V2.00 B2112,2013-02-11 10:42:00,
2013-02-11 05:47:00,46.0,44.4,30.06,NNW,346,0.0,0.0,94,0.00,,,0.03,LWC V2.00 B2112,2013-02-11 10:47:00,
2013-02-11 05:52:00,46.0,44.4,30.06,NNW,346,0.0,0.0,94,0.00,,,0.03,LWC V2.00 B2112,2013-02-11 10:52:00,
2013-02-11 05:57:00,46.0,44.4,30.06,NNW,346,0.0,0.0,94,0.00,,,0.03,LWC V2.00 B2112,2013-02-11 10:57:00,
2013-02-11 06:02:00,46.0,44.4,30.06,NNW,346,0.0,0.0,94,0.00,,,0.03,LWC V2.00 B2112,2013-02-11 11:02:00,
2013-02-11 06:07:00,46.1,44.5,30.07,NNW,346,0.0,0.0,94,0.00,,,0.03,LWC V2.00 B2112,2013-02-11 11:07:00,
2013-02-11 06:12:00,46.1,44.5,30.07,NNW,346,0.0,0.0,94,0.00,,,0.03,LWC V2.00 B2112,2013-02-11 11:12:00,
2013-02-11 06:17:00,46.1,44.5,30.07,NNW,346,0.0,0.0,94,0.00,,,0.03,LWC V2.00 B2112,2013-02-11 11:17:00,
2013-02-11 06:22:00,46.2,44.8,30.05,NNW,346,0.0,0.0,95,0.00,,,0.03,LWC V2.00 B2112,2013-02-11 11:22:00,
2013-02-11 06:27:00,46.2,44.8,30.05,NNW,346,0.0,0.0,95,0.00,,,0.03,LWC V2.00 B2112,2013-02-11 11:27:00,
2013-02-11 06:32:00,46.4,45.0,30.05,NNW,346,0.0,0.0,95,0.00,,,0.03,LWC V2.00 B2112,2013-02-11 11:32:00,
2013-02-11 06:37:00,46.4,45.0,30.05,NNW,346,0.0,0.0,95,0.00,,,0.03,LWC V2.00 B2112,2013-02-11 11:37:00,
2013-02-11 06:42:00,46.5,45.1,30.05,NNW,346,0.0,0.0,95,0.00,,,0.03,LWC V2.00 B2112,2013-02-11 11:42:00,
2013-02-11 06:47:00,46.5,45.1,30.05,NNW,346,0.0,0.0,95,0.00,,,0.03,LWC V2.00 B2112,2013-02-11 11:47:00,
2013-02-11 06:52:00,46.5,45.1,30.06,NNW,346,0.0,0.0,95,0.00,,,0.00,LWC V2.00 B2112,2013-02-11 11:52:00,
2013-02-11 06:57:00,46.7,45.3,30.06,NNW,346,0.0,0.0,95,0.00,,,0.00,LWC V2.00 B2112,2013-02-11 11:57:00,
2013-02-11 07:02:00,46.7,45.3,30.06,NNW,346,0.0,0.0,95,0.00,,,0.01,LWC V2.00 B2112,2013-02-11 12:02:00,
2013-02-11 07:07:00,46.7,45.3,30.05,NNW,346,0.0,0.0,95,0.00,,,0.01,LWC V2.00 B2112,2013-02-11 12:07:00,
2013-02-11 07:12:00,46.7,45.6,30.05,NNW,346,0.0,0.0,96,0.00,,,0.01,LWC V2.00 B2112,2013-02-11 12:12:00,
2013-02-11 07:17:00,46.8,45.7,30.05,NNW,346,0.0,0.0,96,0.00,,,0.01,LWC V2.00 B2112,2013-02-11 12:17:00,
2013-02-11 07:22:00,47.1,46.0,30.05,NNW,346,0.0,0.0,96,0.00,,,0.01,LWC V2.00 B2112,2013-02-11 12:22:00,
2013-02-11 07:27:00,47.4,46.6,30.05,NNW,346,0.0,0.0,97,0.00,,,0.01,LWC V2.00 B2112,2013-02-11 12:27:00,
2013-02-11 07:32:00,48.0,47.2,30.05,NNW,346,0.0,0.0,97,0.00,,,0.01,LWC V2.00 B2112,2013-02-11 12:32:00,
2013-02-11 07:37:00,48.3,47.5,30.05,NNW,346,0.0,0.0,97,0.00,,,0.01,LWC V2.00 B2112,2013-02-11 12:37:00,
2013-02-11 07:42:00,48.6,47.8,30.05,NNW,346,0.0,0.0,97,0.00,,,0.02,LWC V2.00 B2112,2013-02-11 12:42:00,
2013-02-11 07:47:00,48.8,48.0,30.05,NNW,346,0.0,0.0,97,0.00,,,0.02,LWC V2.00 B2112,2013-02-11 12:47:00,
2013-02-11 07:52:00,48.9,48.1,30.05,NNW,346,0.0,0.0,97,0.00,,,0.02,LWC V2.00 B2112,2013-02-11 12:52:00,
2013-02-11 07:57:00,48.9,48.1,30.05,NNW,346,0.0,0.0,97,0.00,,,0.02,LWC V2.00 B2112,2013-02-11 12:57:00,
2013-02-11 08:02:00,49.2,48.4,30.05,NNW,346,0.0,0.0,97,0.00,,,0.02,LWC V2.00 B2112,2013-02-11 13:02:00,
2013-02-11 08:07:00,49.4,48.6,30.05,NNW,346,0.0,0.0,97,0.00,,,0.02,LWC V2.00 B2112,2013-02-11 13:07:00,
2013-02-11 08:12:00,49.5,48.7,30.05,NNW,346,0.0,0.0,97,0.00,,,0.02,LWC V2.00 B2112,2013-02-11 13:12:00,
2013-02-11 08:17:00,49.5,48.7,30.05,NNW,346,0.0,1.0,97,0.00,,,0.02,LWC V2.00 B2112,2013-02-11 13:17:00,
2013-02-11 08:22:00,49.6,49.1,30.04,NNW,346,0.0,1.0,98,0.00,,,0.02,LWC V2.00 B2112,2013-02-11 13:22:00,
2013-02-11 08:24:00,49.8,49.3,30.04,NNW,346,0.0,0.0,98,0.00,,,0.02,LWC V2.00 B2112,2013-02-11 13:24:00,
2013-02-11 08:29:00,49.9,49.4,30.04,NNW,346,0.0,0.0,98,0.00,,,0.02,LWC V2.00 B2112,2013-02-11 13:29:00,
2013-02-11 08:34:00,50.2,49.7,30.02,NNW,346,0.0,0.0,98,0.00,,,0.02,LWC V2.00 B2112,2013-02-11 13:34:00,
2013-02-11 08:39:00,50.5,50.0,30.02,NNW,346,0.0,0.0,98,0.00,,,0.02,LWC V2.00 B2112,2013-02-11 13:39:00,
2013-02-11 08:44:00,50.8,50.3,30.02,NNW,346,0.0,0.0,98,0.00,,,0.03,LWC V2.00 B2112,2013-02-11 13:44:00,
2013-02-11 08:49:00,51.1,50.8,30.02,NNW,346,0.0,0.0,99,0.00,,,0.03,LWC V2.00 B2112,2013-02-11 13:49:00,
2013-02-11 08:54:00,51.6,51.3,30.02,NNW,346,0.0,1.0,99,0.00,,,0.03,LWC V2.00 B2112,2013-02-11 13:54:00,
2013-02-11 08:59:00,52.2,51.9,30.02,NNW,346,0.0,0.0,99,0.00,,,0.03,LWC V2.00 B2112,2013-02-11 13:59:00,
2013-02-11 09:04:00,52.5,52.2,30.02,NNW,346,0.0,0.0,99,0.00,,,0.03,LWC V2.00 B2112,2013-02-11 14:04:00,
2013-02-11 09:09:00,52.8,52.5,30.02,NNW,346,0.0,0.0,99,0.00,,,0.03,LWC V2.00 B2112,2013-02-11 14:09:00,
2013-02-11 09:14:00,53.1,52.8,30.02,NNW,346,0.0,0.0,99,0.00,,,0.03,LWC V2.00 B2112,2013-02-11 14:14:00,
2013-02-11 09:19:00,53.2,52.9,30.02,NNW,346,0.0,0.0,99,0.00,,,0.03,LWC V2.00 B2112,2013-02-11 14:19:00,
2013-02-11 09:24:00,53.5,53.2,30.02,NNW,346,0.0,1.0,99,0.00,,,0.03,LWC V2.00 B2112,2013-02-11 14:24:00,
2013-02-11 09:29:00,53.5,53.2,30.02,NNW,346,0.0,0.0,99,0.00,,,0.03,LWC V2.00 B2112,2013-02-11 14:29:00,
2013-02-11 09:34:00,53.3,53.0,30.02,NNW,346,0.0,0.0,99,0.00,,,0.03,LWC V2.00 B2112,2013-02-11 14:34:00,
2013-02-11 09:39:00,53.2,52.9,30.02,NNW,346,0.0,0.0,99,0.00,,,0.03,LWC V2.00 B2112,2013-02-11 14:39:00,
2013-02-11 09:44:00,53.3,53.0,30.02,NNW,346,0.0,1.0,99,0.00,,,0.03,LWC V2.00 B2112,2013-02-11 14:44:00,
2013-02-11 09:49:00,53.5,53.2,30.02,NNW,346,0.0,0.0,99,0.00,,,0.03,LWC V2.00 B2112,2013-02-11 14:49:00,
2013-02-11 09:54:00,53.5,53.2,30.02,NNW,346,0.0,0.0,99,0.00,,,0.03,LWC V2.00 B2112,2013-02-11 14:54:00,
2013-02-11 09:59:00,53.6,53.3,30.02,NNW,346,0.0,0.0,99,0.00,,,0.03,LWC V2.00 B2112,2013-02-11 14:59:00,
2013-02-11 10:04:00,53.9,53.9,30.02,NNW,346,0.0,0.0,100,0.00,,,0.03,LWC V2.00 B2112,2013-02-11 15:04:00,
2013-02-11 10:09:00,54.1,54.1,30.02,NNW,346,0.0,0.0,100,0.00,,,0.03,LWC V2.00 B2112,2013-02-11 15:09:00,
2013-02-11 10:14:00,54.1,54.1,30.02,NNW,346,0.0,0.0,100,0.00,,,0.03,LWC V2.00 B2112,2013-02-11 15:14:00,
2013-02-11 10:19:00,54.2,53.9,30.02,NNW,346,0.0,0.0,99,0.00,,,0.03,LWC V2.00 B2112,2013-02-11 15:19:00,
2013-02-11 10:24:00,54.7,54.7,30.02,NNW,346,0.0,0.0,100,0.00,,,0.03,LWC V2.00 B2112,2013-02-11 15:24:00,
2013-02-11 10:29:00,55.4,55.4,30.02,NNW,346,0.0,0.0,100,0.00,,,0.03,LWC V2.00 B2112,2013-02-11 15:29:00,
2013-02-11 10:34:00,56.0,56.0,30.02,NW,325,0.0,1.0,100,0.00,,,0.03,LWC V2.00 B2112,2013-02-11 15:34:00,
2013-02-11 10:39:00,56.7,56.7,30.02,NW,325,0.0,1.0,100,0.00,,,0.03,LWC V2.00 B2112,2013-02-11 15:39:00,
2013-02-11 10:44:00,57.3,57.3,30.02,NW,312,0.0,1.0,100,0.00,,,0.03,LWC V2.00 B2112,2013-02-11 15:44:00,
2013-02-11 10:49:00,57.8,57.8,30.02,NW,312,0.0,1.0,100,0.00,,,0.03,LWC V2.00 B2112,2013-02-11 15:49:00,
2013-02-11 10:54:00,58.0,58.0,30.02,NW,312,0.0,0.0,100,0.00,,,0.03,LWC V2.00 B2112,2013-02-11 15:54:00,
2013-02-11 10:59:00,58.1,58.1,30.02,NW,312,0.0,1.0,100,0.00,,,0.03,LWC V2.00 B2112,2013-02-11 15:59:00,
2013-02-11 11:04:00,58.3,58.3,30.00,NW,312,0.0,0.0,100,0.00,,,0.03,LWC V2.00 B2112,2013-02-11 16:04:00,
2013-02-11 11:09:00,58.4,58.4,30.00,NW,312,0.0,0.0,100,0.00,,,0.03,LWC V2.00 B2112,2013-02-11 16:09:00,
2013-02-11 11:14:00,58.4,58.4,30.00,NW,311,0.0,0.0,100,0.00,,,0.03,LWC V2.00 B2112,2013-02-11 16:14:00,
2013-02-11 11:19:00,58.4,58.4,29.99,NW,311,0.0,0.0,100,0.00,,,0.03,LWC V2.00 B2112,2013-02-11 16:19:00,
2013-02-11 11:24:00,58.4,58.4,29.99,NW,311,0.0,0.0,100,0.00,,,0.03,LWC V2.00 B2112,2013-02-11 16:24:00,
2013-02-11 11:29:00,58.4,58.4,29.99,NW,311,0.0,1.0,100,0.00,,,0.03,LWC V2.00 B2112,2013-02-11 16:29:00,
2013-02-11 11:34:00,58.6,58.6,29.98,WNW,294,0.0,1.0,100,0.00,,,0.03,LWC V2.00 B2112,2013-02-11 16:34:00,
2013-02-11 11:39:00,58.7,58.7,29.98,WNW,294,0.0,0.0,100,0.00,,,0.03,LWC V2.00 B2112,2013-02-11 16:39:00,
2013-02-11 11:44:00,58.7,58.7,29.98,WNW,294,0.0,0.0,100,0.00,,,0.03,LWC V2.00 B2112,2013-02-11 16:44:00,
2013-02-11 11:49:00,58.7,58.7,29.97,WNW,294,0.0,0.0,100,0.00,,,0.03,LWC V2.00 B2112,2013-02-11 16:49:00,
2013-02-11 11:54:00,58.7,58.7,29.97,WNW,294,0.0,0.0,100,0.00,,,0.03,LWC V2.00 B2112,2013-02-11 16:54:00,
2013-02-11 11:59:00,58.7,58.7,29.97,WNW,294,0.0,1.0,100,0.00,,,0.03,LWC V2.00 B2112,2013-02-11 16:59:00,
2013-02-11 12:04:00,58.9,58.9,29.96,WNW,294,0.0,1.0,100,0.00,,,0.03,LWC V2.00 B2112,2013-02-11 17:04:00,
2013-02-11 12:09:00,58.9,58.9,29.96,WNW,294,1.0,1.0,100,0.00,,,0.03,LWC V2.00 B2112,2013-02-11 17:09:00,
2013-02-11 12:14:00,59.0,59.0,29.96,NW,316,0.0,1.0,100,0.00,,,0.03,LWC V2.00 B2112,2013-02-11 17:14:00,
2013-02-11 12:19:00,59.0,59.0,29.96,NW,316,0.0,0.0,100,0.00,,,0.03,LWC V2.00 B2112,2013-02-11 17:19:00,
2013-02-11 12:24:00,59.2,59.2,29.96,NW,316,0.0,1.0,100,0.00,,,0.03,LWC V2.00 B2112,2013-02-11 17:24:00,
2013-02-11 12:29:00,59.2,59.2,29.96,SW,227,0.0,1.0,100,0.00,,,0.03,LWC V2.00 B2112,2013-02-11 17:29:00,
2013-02-11 12:34:00,59.3,59.3,29.96,SW,227,1.0,1.0,100,0.00,,,0.03,LWC V2.00 B2112,2013-02-11 17:34:00,
2013-02-11 12:39:00,59.5,59.5,29.96,SW,227,0.0,1.0,100,0.00,,,0.03,LWC V2.00 B2112,2013-02-11 17:39:00,
2013-02-11 12:44:00,59.5,59.5,29.96,SW,227,0.0,1.0,100,0.00,,,0.03,LWC V2.00 B2112,2013-02-11 17:44:00,
2013-02-11 12:49:00,59.6,59.6,29.94,SW,227,0.0,1.0,100,0.00,,,0.03,LWC V2.00 B2112,2013-02-11 17:49:00,
2013-02-11 12:54:00,59.8,59.8,29.94,SW,222,0.0,0.0,100,0.00,,,0.03,LWC V2.00 B2112,2013-02-11 17:54:00,
2013-02-11 12:59:00,59.8,59.8,29.94,SW,222,0.0,0.0,100,0.00,,,0.03,LWC V2.00 B2112,2013-02-11 17:59:00,
2013-02-11 13:04:00,59.9,59.6,29.94,SW,221,0.0,1.0,99,0.00,,,0.03,LWC V2.00 B2112,2013-02-11 18:04:00,
2013-02-11 13:09:00,59.9,59.6,29.94,SW,221,0.0,1.0,99,0.00,,,0.03,LWC V2.00 B2112,2013-02-11 18:09:00,
2013-02-11 13:14:00,59.9,59.6,29.94,SW,221,0.0,0.0,99,0.00,,,0.03,LWC V2.00 B2112,2013-02-11 18:14:00,
2013-02-11 13:19:00,59.9,59.6,29.94,SW,221,0.0,1.0,99,0.00,,,0.03,LWC V2.00 B2112,2013-02-11 18:19:00,
2013-02-11 13:24:00,60.1,59.8,29.94,SW,221,0.0,0.0,99,0.00,,,0.03,LWC V2.00 B2112,2013-02-11 18:24:00,
2013-02-11 13:29:00,60.1,59.8,29.94,SW,221,0.0,0.0,99,0.00,,,0.03,LWC V2.00 B2112,2013-02-11 18:29:00,
2013-02-11 13:34:00,60.1,59.8,29.93,SW,221,0.0,0.0,99,0.00,,,0.03,LWC V2.00 B2112,2013-02-11 18:34:00,
2013-02-11 13:39:00,60.1,59.5,29.93,North,0,0.0,3.0,98,0.00,,,0.03,LWC V2.00 B2112,2013-02-11 18:39:00,
2013-02-11 13:44:00,60.1,59.5,29.93,North,0,0.0,0.0,98,0.00,,,0.03,LWC V2.00 B2112,2013-02-11 18:44:00,
2013-02-11 13:49:00,60.1,59.5,29.93,North,0,0.0,0.0,98,0.00,,,0.03,LWC V2.00 B2112,2013-02-11 18:49:00,
2013-02-11 13:55:00,60.1,59.5,29.93,North,0,0.0,0.0,98,0.00,,,0.03,LWC V2.00 B2112,2013-02-11 18:55:00,
2013-02-11 14:00:00,60.2,59.6,29.93,North,0,0.0,1.0,98,0.00,,,0.03,LWC V2.00 B2112,2013-02-11 19:00:00,
2013-02-11 14:05:00,60.2,59.6,29.91,North,0,0.0,0.0,98,0.00,,,0.03,LWC V2.00 B2112,2013-02-11 19:05:00,
2013-02-11 14:10:00,60.4,59.8,29.91,North,0,0.0,0.0,98,0.00,,,0.03,LWC V2.00 B2112,2013-02-11 19:10:00,
2013-02-11 14:15:00,60.4,59.8,29.91,North,0,0.0,0.0,98,0.00,,,0.03,LWC V2.00 B2112,2013-02-11 19:15:00,
2013-02-11 14:20:00,60.4,59.8,29.90,NW,308,0.0,0.0,98,0.00,,,0.03,LWC V2.00 B2112,2013-02-11 19:20:00,
2013-02-11 14:25:00,60.5,59.9,29.90,NW,308,0.0,1.0,98,0.00,,,0.03,LWC V2.00 B2112,2013-02-11 19:25:00,
2013-02-11 14:30:00,60.5,59.9,29.90,SSW,192,0.0,2.0,98,0.00,,,0.03,LWC V2.00 B2112,2013-02-11 19:30:00,
2013-02-11 14:35:00,60.7,59.8,29.90,SSW,207,0.0,1.0,97,0.00,,,0.03,LWC V2.00 B2112,2013-02-11 19:35:00,
2013-02-11 14:40:00,60.7,59.8,29.90,ESE,111,0.0,2.0,97,0.00,,,0.03,LWC V2.00 B2112,2013-02-11 19:40:00,
2013-02-11 14:45:00,60.9,59.7,29.90,NNW,346,0.0,3.0,96,0.00,,,0.03,LWC V2.00 B2112,2013-02-11 19:45:00,
2013-02-11 14:50:00,61.0,59.6,29.90,North,0,0.0,1.0,95,0.00,,,0.03,LWC V2.00 B2112,2013-02-11 19:50:00,
2013-02-11 14:55:00,61.0,59.6,29.90,North,0,0.0,0.0,95,0.00,,,0.03,LWC V2.00 B2112,2013-02-11 19:55:00,
2013-02-11 15:00:00,61.2,59.8,29.90,NW,304,1.0,2.0,95,0.00,,,0.03,LWC V2.00 B2112,2013-02-11 20:00:00,
2013-02-11 15:05:00,61.2,59.5,29.91,NW,304,1.0,2.0,94,0.00,,,0.03,LWC V2.00 B2112,2013-02-11 20:05:00,
2013-02-11 15:10:00,61.3,59.3,29.91,ENE,61,0.0,4.0,93,0.00,,,0.03,LWC V2.00 B2112,2013-02-11 20:10:00,
2013-02-11 15:15:00,61.3,59.3,29.91,West,280,0.0,1.0,93,0.00,,,0.03,LWC V2.00 B2112,2013-02-11 20:15:00,
2013-02-11 15:20:00,61.5,59.5,29.91,West,269,0.0,2.0,93,0.00,,,0.03,LWC V2.00 B2112,2013-02-11 20:20:00,
2013-02-11 15:25:00,61.5,59.2,29.91,West,267,2.0,4.0,92,0.00,,,0.03,LWC V2.00 B2112,2013-02-11 20:25:00,
2013-02-11 15:30:00,61.6,59.2,29.91,West,267,0.0,1.0,92,0.00,,,0.03,LWC V2.00 B2112,2013-02-11 20:30:00,
2013-02-11 15:35:00,61.6,58.9,29.91,NNW,331,0.0,2.0,91,0.00,,,0.03,LWC V2.00 B2112,2013-02-11 20:35:00,
2013-02-11 15:40:00,61.6,58.9,29.91,NNW,331,0.0,0.0,91,0.00,,,0.03,LWC V2.00 B2112,2013-02-11 20:40:00,
2013-02-11 15:45:00,61.8,59.1,29.91,North,11,0.0,1.0,91,0.00,,,0.03,LWC V2.00 B2112,2013-02-11 20:45:00,
2013-02-11 15:50:00,61.8,58.8,29.89,NNW,331,0.0,0.0,90,0.00,,,0.03,LWC V2.00 B2112,2013-02-11 20:50:00,
2013-02-11 15:55:00,62.0,59.0,29.89,NNW,335,0.0,2.0,90,0.00,,,0.03,LWC V2.00 B2112,2013-02-11 20:55:00,
2013-02-11 16:00:00,62.0,59.0,29.89,NNW,338,0.0,1.0,90,0.00,,,0.03,LWC V2.00 B2112,2013-02-11 21:00:00,
2013-02-11 16:05:00,62.0,58.7,29.88,NNW,338,0.0,1.0,89,0.00,,,0.03,LWC V2.00 B2112,2013-02-11 21:05:00,
2013-02-11 16:10:00,62.0,58.7,29.88,NNW,338,0.0,0.0,89,0.00,,,0.03,LWC V2.00 B2112,2013-02-11 21:10:00,
2013-02-11 16:15:00,62.0,58.7,29.88,NNW,342,0.0,2.0,89,0.00,,,0.03,LWC V2.00 B2112,2013-02-11 21:15:00,
2013-02-11 16:20:00,62.0,58.7,29.88,NNW,342,0.0,0.0,89,0.00,,,0.03,LWC V2.00 B2112,2013-02-11 21:20:00,
2013-02-11 16:25:00,61.8,58.5,29.88,NNW,342,0.0,0.0,89,0.00,,,0.03,LWC V2.00 B2112,2013-02-11 21:25:00,
2013-02-11 16:30:00,61.8,58.8,29.88,NW,308,0.0,2.0,90,0.00,,,0.03,LWC V2.00 B2112,2013-02-11 21:30:00,
2013-02-11 16:35:00,62.0,58.7,29.87,ENE,67,0.0,1.0,89,0.00,,,0.03,LWC V2.00 B2112,2013-02-11 21:35:00,
2013-02-11 16:40:00,62.1,58.8,29.87,ENE,67,0.0,0.0,89,0.00,,,0.03,LWC V2.00 B2112,2013-02-11 21:40:00,
2013-02-11 16:45:00,62.1,58.5,29.87,East,89,0.0,0.0,88,0.00,,,0.03,LWC V2.00 B2112,2013-02-11 21:45:00,
2013-02-11 16:50:00,62.3,58.7,29.88,NNW,335,0.0,1.0,88,0.00,,,0.03,LWC V2.00 B2112,2013-02-11 21:50:00,
2013-02-11 16:55:00,62.3,58.7,29.88,NNW,335,0.0,0.0,88,0.00,,,0.03,LWC V2.00 B2112,2013-02-11 21:55:00,
2013-02-11 17:00:00,62.1,58.5,29.88,NNW,336,0.0,1.0,88,0.00,,,0.03,LWC V2.00 B2112,2013-02-11 22:00:00,
2013-02-11 17:05:00,62.3,58.7,29.88,NNW,348,0.0,1.0,88,0.00,,,0.03,LWC V2.00 B2112,2013-02-11 22:05:00,
2013-02-11 17:10:00,62.3,58.4,29.88,ENE,70,0.0,0.0,87,0.00,,,0.03,LWC V2.00 B2112,2013-02-11 22:10:00,
2013-02-11 17:15:00,62.3,58.4,29.88,ENE,59,0.0,0.0,87,0.00,,,0.03,LWC V2.00 B2112,2013-02-11 22:15:00,
2013-02-11 17:20:00,62.3,58.4,29.88,ENE,59,0.0,0.0,87,0.00,,,0.03,LWC V2.00 B2112,2013-02-11 22:20:00,
2013-02-11 17:25:00,62.1,58.2,29.88,North,9,0.0,1.0,87,0.00,,,0.03,LWC V2.00 B2112,2013-02-11 22:25:00,
2013-02-11 17:30:00,62.1,58.2,29.88,North,9,0.0,0.0,87,0.00,,,0.03,LWC V2.00 B2112,2013-02-11 22:30:00,
2013-02-11 17:35:00,62.1,58.2,29.88,NE,36,1.0,2.0,87,0.00,,,0.03,LWC V2.00 B2112,2013-02-11 22:35:00,
2013-02-11 17:40:00,62.1,58.2,29.88,SSE,148,0.0,1.0,87,0.00,,,0.03,LWC V2.00 B2112,2013-02-11 22:40:00,
2013-02-11 17:45:00,62.0,58.1,29.88,NE,38,0.0,0.0,87,0.00,,,0.03,LWC V2.00 B2112,2013-02-11 22:45:00,
2013-02-11 17:50:00,62.0,58.1,29.89,NE,38,0.0,0.0,87,0.00,,,0.03,LWC V2.00 B2112,2013-02-11 22:50:00,
2013-02-11 17:55:00,62.0,58.1,29.89,ENE,58,1.0,1.0,87,0.00,,,0.03,LWC V2.00 B2112,2013-02-11 22:55:00,
2013-02-11 18:00:00,61.8,57.9,29.89,NNW,343,0.0,1.0,87,0.00,,,0.03,LWC V2.00 B2112,2013-02-11 23:00:00,
2013-02-11 18:05:00,62.0,58.1,29.88,NNW,343,0.0,1.0,87,0.00,,,0.03,LWC V2.00 B2112,2013-02-11 23:05:00,
2013-02-11 18:10:00,61.8,57.9,29.88,NNW,343,0.0,0.0,87,0.00,,,0.03,LWC V2.00 B2112,2013-02-11 23:10:00,
2013-02-11 18:15:00,61.8,57.9,29.88,NNW,343,0.0,1.0,87,0.00,,,0.03,LWC V2.00 B2112,2013-02-11 23:15:00,
2013-02-11 18:20:00,61.6,57.7,29.89,NNW,343,0.0,0.0,87,0.00,,,0.03,LWC V2.00 B2112,2013-02-11 23:20:00,
2013-02-11 18:25:00,61.6,57.7,29.89,NNW,343,0.0,1.0,87,0.00,,,0.03,LWC V2.00 B2112,2013-02-11 23:25:00,
2013-02-11 18:30:00,61.8,57.9,29.89,ESE,102,0.0,0.0,87,0.00,,,0.03,LWC V2.00 B2112,2013-02-11 23:30:00,
2013-02-11 18:35:00,61.6,57.7,29.89,ESE,104,0.0,1.0,87,0.00,,,0.03,LWC V2.00 B2112,2013-02-11 23:35:00,
2013-02-11 18:40:00,61.5,57.6,29.89,WSW,253,1.0,1.0,87,0.00,,,0.03,LWC V2.00 B2112,2013-02-11 23:40:00,
2013-02-11 18:45:00,61.5,57.6,29.89,WSW,253,0.0,1.0,87,0.00,,,0.03,LWC V2.00 B2112,2013-02-11 23:45:00,
2013-02-11 18:50:00,61.3,57.4,29.88,WSW,253,0.0,1.0,87,0.00,,,0.03,LWC V2.00 B2112,2013-02-11 23:50:00,
2013-02-11 18:55:00,61.3,57.4,29.88,West,266,0.0,4.0,87,0.00,,,0.03,LWC V2.00 B2112,2013-02-11 23:55:00,
2013-02-11 19:00:00,61.5,57.6,29.88,West,266,0.0,1.0,87,0.00,,,0.03,LWC V2.00 B2112,2013-02-12 00:00:00,
2013-02-11 19:05:00,61.3,57.4,29.89,WNW,287,0.0,1.0,87,0.00,,,0.03,LWC V2.00 B2112,2013-02-12 00:05:00,
2013-02-11 19:10:00,61.5,57.6,29.89,WNW,287,0.0,0.0,87,0.00,,,0.03,LWC V2.00 B2112,2013-02-12 00:10:00,
2013-02-11 19:15:00,61.5,57.6,29.89,WNW,287,0.0,0.0,87,0.00,,,0.03,LWC V2.00 B2112,2013-02-12 00:15:00,
2013-02-11 19:20:00,61.5,57.6,29.89,WNW,287,0.0,1.0,87,0.00,,,0.03,LWC V2.00 B2112,2013-02-12 00:20:00,
2013-02-11 19:25:00,61.5,57.6,29.89,WNW,287,0.0,0.0,87,0.00,,,0.03,LWC V2.00 B2112,2013-02-12 00:25:00,
2013-02-11 19:30:00,61.3,57.4,29.89,WNW,287,0.0,1.0,87,0.00,,,0.03,LWC V2.00 B2112,2013-02-12 00:30:00,
2013-02-11 19:35:00,61.2,57.3,29.89,WNW,287,0.0,0.0,87,0.00,,,0.03,LWC V2.00 B2112,2013-02-12 00:35:00,
2013-02-11 19:40:00,61.2,57.3,29.89,WNW,287,0.0,0.0,87,0.00,,,0.03,LWC V2.00 B2112,2013-02-12 00:40:00,
2013-02-11 19:45:00,61.2,57.3,29.89,WNW,287,0.0,0.0,87,0.00,,,0.03,LWC V2.00 B2112,2013-02-12 00:45:00,
2013-02-11 19:50:00,61.2,57.3,29.91,WNW,287,0.0,0.0,87,0.00,,,0.03,LWC V2.00 B2112,2013-02-12 00:50:00,
2013-02-11 19:55:00,61.0,57.1,29.91,WNW,287,0.0,1.0,87,0.00,,,0.03,LWC V2.00 B2112,2013-02-12 00:55:00,
2013-02-11 20:00:00,61.2,57.0,29.91,WNW,287,0.0,0.0,86,0.00,,,0.03,LWC V2.00 B2112,2013-02-12 01:00:00,
2013-02-11 20:05:00,61.0,56.8,29.90,WNW,287,0.0,1.0,86,0.00,,,0.03,LWC V2.00 B2112,2013-02-12 01:05:00,
2013-02-11 20:10:00,61.0,56.8,29.90,WNW,287,0.0,0.0,86,0.00,,,0.03,LWC V2.00 B2112,2013-02-12 01:10:00,
2013-02-11 20:15:00,61.0,56.8,29.90,WNW,287,0.0,0.0,86,0.00,,,0.03,LWC V2.00 B2112,2013-02-12 01:15:00,
2013-02-11 20:20:00,60.7,56.5,29.89,SSW,203,0.0,0.0,86,0.00,,,0.03,LWC V2.00 B2112,2013-02-12 01:20:00,
2013-02-11 20:25:00,60.7,56.5,29.89,SSW,203,0.0,0.0,86,0.00,,,0.03,LWC V2.00 B2112,2013-02-12 01:25:00,
2013-02-11 20:30:00,60.5,56.3,29.89,South,170,0.0,0.0,86,0.00,,,0.03,LWC V2.00 B2112,2013-02-12 01:30:00,
2013-02-11 20:35:00,60.4,56.2,29.89,NNW,338,1.0,1.0,86,0.00,,,0.03,LWC V2.00 B2112,2013-02-12 01:35:00,
2013-02-11 20:40:00,60.2,56.0,29.89,NNW,338,1.0,1.0,86,0.00,,,0.03,LWC V2.00 B2112,2013-02-12 01:40:00,
2013-02-11 20:45:00,60.1,55.9,29.89,NNW,338,0.0,0.0,86,0.00,,,0.03,LWC V2.00 B2112,2013-02-12 01:45:00,
2013-02-11 20:50:00,59.9,55.7,29.89,NNW,338,0.0,0.0,86,0.00,,,0.03,LWC V2.00 B2112,2013-02-12 01:50:00,
2013-02-11 20:55:00,59.8,55.9,29.89,ENE,69,0.0,0.0,87,0.00,,,0.03,LWC V2.00 B2112,2013-02-12 01:55:00,
2013-02-11 21:00:00,59.8,55.9,29.89,NNW,327,0.0,1.0,87,0.00,,,0.03,LWC V2.00 B2112,2013-02-12 02:00:00,
2013-02-11 21:05:00,59.6,55.7,29.89,NNW,327,0.0,0.0,87,0.00,,,0.03,LWC V2.00 B2112,2013-02-12 02:05:00,
2013-02-11 21:10:00,59.5,55.6,29.89,NNW,327,0.0,0.0,87,0.00,,,0.03,LWC V2.00 B2112,2013-02-12 02:10:00,
2013-02-11 21:15:00,59.5,55.6,29.89,NNW,327,0.0,0.0,87,0.00,,,0.03,LWC V2.00 B2112,2013-02-12 02:15:00,
2013-02-11 21:20:00,59.3,55.4,29.89,NNW,327,0.0,0.0,87,0.00,,,0.03,LWC V2.00 B2112,2013-02-12 02:20:00,
2013-02-11 21:25:00,59.3,55.4,29.89,NNW,327,0.0,0.0,87,0.00,,,0.03,LWC V2.00 B2112,2013-02-12 02:25:00,
2013-02-11 21:30:00,59.2,55.3,29.89,NNW,327,0.0,0.0,87,0.00,,,0.03,LWC V2.00 B2112,2013-02-12 02:30:00,
2013-02-11 21:35:00,59.0,55.1,29.89,NNW,327,0.0,0.0,87,0.00,,,0.03,LWC V2.00 B2112,2013-02-12 02:35:00,
2013-02-11 21:40:00,58.9,55.3,29.89,NNW,327,0.0,1.0,88,0.00,,,0.03,LWC V2.00 B2112,2013-02-12 02:40:00,
2013-02-11 21:45:00,58.7,55.2,29.89,NNW,327,0.0,1.0,88,0.00,,,0.03,LWC V2.00 B2112,2013-02-12 02:45:00,
2013-02-11 21:50:00,58.6,55.1,29.88,NNW,327,0.0,1.0,88,0.00,,,0.03,LWC V2.00 B2112,2013-02-12 02:50:00,
2013-02-11 21:55:00,58.6,55.1,29.88,NNW,327,0.0,1.0,88,0.00,,,0.03,LWC V2.00 B2112,2013-02-12 02:55:00,
2013-02-11 22:00:00,58.4,54.9,29.88,NNW,327,0.0,1.0,88,0.00,,,0.03,LWC V2.00 B2112,2013-02-12 03:00:00,
2013-02-11 22:05:00,58.3,54.8,29.88,NNW,327,0.0,0.0,88,0.00,,,0.03,LWC V2.00 B2112,2013-02-12 03:05:00,
2013-02-11 22:10:00,58.1,54.9,29.88,NNW,327,0.0,0.0,89,0.00,,,0.03,LWC V2.00 B2112,2013-02-12 03:10:00,
2013-02-11 22:15:00,58.1,55.2,29.88,NNW,327,0.0,1.0,90,0.00,,,0.03,LWC V2.00 B2112,2013-02-12 03:15:00,
2013-02-11 22:20:00,58.1,54.9,29.89,NNW,327,1.0,1.0,89,0.00,,,0.03,LWC V2.00 B2112,2013-02-12 03:20:00,
2013-02-11 22:25:00,58.1,54.9,29.89,NNW,327,0.0,0.0,89,0.00,,,0.03,LWC V2.00 B2112,2013-02-12 03:25:00,
2013-02-11 22:30:00,58.1,55.2,29.89,NNW,327,0.0,0.0,90,0.00,,,0.03,LWC V2.00 B2112,2013-02-12 03:30:00,
2013-02-11 22:35:00,58.1,54.9,29.89,NNW,327,1.0,1.0,89,0.00,,,0.03,LWC V2.00 B2112,2013-02-12 03:35:00,
2013-02-11 22:40:00,58.1,54.9,29.89,NNW,327,0.0,0.0,89,0.00,,,0.03,LWC V2.00 B2112,2013-02-12 03:40:00,
2013-02-11 22:45:00,58.0,54.8,29.89,NNW,327,0.0,0.0,89,0.00,,,0.03,LWC V2.00 B2112,2013-02-12 03:45:00,
2013-02-11 22:50:00,57.5,54.3,29.88,NNW,327,0.0,1.0,89,0.00,,,0.03,LWC V2.00 B2112,2013-02-12 03:50:00,
2013-02-11 22:55:00,57.2,54.0,29.88,NNW,327,0.0,0.0,89,0.00,,,0.03,LWC V2.00 B2112,2013-02-12 03:55:00,
2013-02-11 23:00:00,57.0,54.1,29.88,NNW,327,0.0,0.0,90,0.00,,,0.03,LWC V2.00 B2112,2013-02-12 04:00:00,
2013-02-11 23:05:00,57.0,54.4,29.88,NNW,328,0.0,0.0,91,0.00,,,0.03,LWC V2.00 B2112,2013-02-12 04:05:00,
2013-02-11 23:10:00,57.0,54.7,29.88,NNW,328,0.0,0.0,92,0.00,,,0.03,LWC V2.00 B2112,2013-02-12 04:10:00,
2013-02-11 23:15:00,57.2,54.9,29.88,NNW,328,0.0,1.0,92,0.00,,,0.03,LWC V2.00 B2112,2013-02-12 04:15:00,
2013-02-11 23:20:00,57.0,54.4,29.89,NNW,328,0.0,0.0,91,0.00,,,0.03,LWC V2.00 B2112,2013-02-12 04:20:00,
2013-02-11 23:25:00,57.0,54.4,29.89,NNW,328,0.0,1.0,91,0.00,,,0.03,LWC V2.00 B2112,2013-02-12 04:25:00,
2013-02-11 23:30:00,56.9,54.3,29.89,NNW,328,0.0,0.0,91,0.00,,,0.03,LWC V2.00 B2112,2013-02-12 04:30:00,
2013-02-11 23:35:00,56.9,54.3,29.88,East,83,0.0,0.0,91,0.00,,,0.03,LWC V2.00 B2112,2013-02-12 04:35:00,
2013-02-11 23:40:00,56.7,54.1,29.88,East,83,0.0,0.0,91,0.00,,,0.03,LWC V2.00 B2112,2013-02-12 04:40:00,
2013-02-11 23:45:00,56.6,54.0,29.88,East,83,0.0,0.0,91,0.00,,,0.03,LWC V2.00 B2112,2013-02-12 04:45:00,
2013-02-11 23:50:00,56.5,53.9,29.88,East,82,0.0,1.0,91,0.00,,,0.03,LWC V2.00 B2112,2013-02-12 04:50:00,
2013-02-11 23:55:00,56.5,53.9,29.88,North,0,0.0,1.0,91,0.00,,,0.03,LWC V2.00 B2112,2013-02-12 04:55:00,